createdAt,value
2023-02-25T00:02:02.594Z,1.80
2023-02-25T00:04:30.169Z,1.60
2023-02-25T00:06:56.783Z,1.33
2023-02-25T00:09:23.455Z,1.90
2023-02-25T00:11:57.460Z,1.53
2023-02-25T00:14:24.082Z,1.77
2023-02-25T00:16:51.027Z,1.77
2023-02-25T00:19:20.058Z,1.80
2023-02-25T00:21:46.691Z,1.43
2023-02-25T00:24:17.177Z,1.63
2023-02-25T00:26:44.784Z,2.63
2023-02-25T00:29:11.395Z,2.30
2023-02-25T00:31:38.222Z,1.90
2023-02-25T00:34:04.988Z,2.03
2023-02-25T00:36:33.822Z,1.80
2023-02-25T00:39:00.524Z,2.30
2023-02-25T00:41:29.066Z,1.47
2023-02-25T00:44:01.161Z,1.70
2023-02-25T00:46:30.102Z,1.87
2023-02-25T00:48:57.598Z,2.03
2023-02-25T00:51:28.144Z,1.50
2023-02-25T00:53:56.465Z,1.53
2023-02-25T00:56:27.599Z,1.70
2023-02-25T00:58:56.574Z,1.60
2023-02-25T01:01:25.867Z,1.43
2023-02-25T01:03:55.620Z,2.03
2023-02-25T01:06:24.317Z,1.63
2023-02-25T01:08:53.958Z,2.30
2023-02-25T01:11:27.578Z,1.10
2023-02-25T01:13:55.041Z,2.20
2023-02-25T01:16:24.901Z,1.63
2023-02-25T01:18:53.571Z,1.30
2023-02-25T01:21:27.099Z,1.20
2023-02-25T01:24:00.451Z,1.37
2023-02-25T01:26:29.124Z,1.60
2023-02-25T01:28:56.254Z,1.73
2023-02-25T01:31:29.660Z,1.93
2023-02-25T01:34:02.028Z,1.90
2023-02-25T01:36:37.954Z,1.67
2023-02-25T01:39:09.776Z,2.00
2023-02-25T01:41:38.004Z,2.10
2023-02-25T01:44:06.338Z,1.60
2023-02-25T01:46:32.976Z,1.70
2023-02-25T01:49:03.829Z,1.63
2023-02-25T01:51:32.552Z,1.60
2023-02-25T01:54:02.739Z,2.13
2023-02-25T01:56:30.921Z,2.07
2023-02-25T01:59:02.358Z,1.67
2023-02-25T02:01:32.463Z,1.77
2023-02-25T02:03:59.090Z,1.70
2023-02-25T02:06:36.882Z,2.07
2023-02-25T02:09:07.218Z,1.40
2023-02-25T02:11:37.150Z,1.97
2023-02-25T02:14:08.141Z,1.60
2023-02-25T02:16:56.822Z,1.67
2023-02-25T02:19:38.699Z,1.80
2023-02-25T02:22:13.442Z,1.83
2023-02-25T02:24:45.362Z,1.67
2023-02-25T02:27:22.374Z,1.97
2023-02-25T02:30:32.722Z,2.00
2023-02-25T02:33:34.557Z,1.47
2023-02-25T02:36:20.223Z,1.83
2023-02-25T02:39:25.240Z,1.60
2023-02-25T02:41:51.797Z,2.20
2023-02-25T02:44:37.358Z,2.00
2023-02-25T02:47:09.007Z,1.90
2023-02-25T02:49:41.581Z,1.60
2023-02-25T02:52:16.931Z,1.87
2023-02-25T02:54:48.892Z,2.43
2023-02-25T02:57:17.224Z,1.67
2023-02-25T02:59:51.917Z,2.33
2023-02-25T03:02:27.101Z,2.53
2023-02-25T03:04:59.660Z,2.85
2023-02-25T03:07:27.344Z,2.33
2023-02-25T03:09:59.961Z,2.20
2023-02-25T03:12:26.542Z,2.90
2023-02-25T03:14:55.483Z,2.30
2023-02-25T03:17:28.241Z,1.83
2023-02-25T03:20:04.330Z,2.27
2023-02-25T03:22:39.394Z,2.22
2023-02-25T03:25:14.649Z,2.43
2023-02-25T03:27:46.980Z,2.53
2023-02-25T03:30:22.825Z,2.07
2023-02-25T03:32:59.219Z,2.20
2023-02-25T03:35:28.140Z,2.10
2023-02-25T03:38:04.573Z,2.43
2023-02-25T03:40:32.814Z,2.10
2023-02-25T03:43:09.338Z,1.87
2023-02-25T03:45:38.987Z,1.97
2023-02-25T03:48:07.756Z,2.37
2023-02-25T03:50:46.667Z,2.20
2023-02-25T03:53:15.894Z,2.10
2023-02-25T03:55:44.806Z,2.30
2023-02-25T03:58:11.822Z,3.00
2023-02-25T04:00:45.968Z,2.33
2023-02-25T04:03:14.795Z,2.77
2023-02-25T04:05:43.628Z,2.77
2023-02-25T04:08:16.138Z,2.57
2023-02-25T04:10:46.520Z,2.20
2023-02-25T04:13:15.165Z,2.43
2023-02-25T04:15:47.540Z,2.23
2023-02-25T04:18:14.736Z,2.80
2023-02-25T04:20:41.830Z,2.50
2023-02-25T04:23:12.334Z,3.10
2023-02-25T04:25:41.118Z,2.43
2023-02-25T04:28:07.728Z,2.43
2023-02-25T04:30:34.648Z,2.00
2023-02-25T04:33:01.342Z,3.03
2023-02-25T04:35:30.693Z,2.23
2023-02-25T04:37:59.678Z,2.67
2023-02-25T04:40:26.327Z,1.60
2023-02-25T04:42:52.982Z,2.00
2023-02-25T04:45:20.593Z,2.33
2023-02-25T04:47:47.198Z,2.30
2023-02-25T04:50:16.245Z,2.50
2023-02-25T04:52:45.080Z,2.20
2023-02-25T04:55:11.706Z,2.20
2023-02-25T04:57:42.696Z,2.47
2023-02-25T05:00:16.900Z,2.17
2023-02-25T05:02:43.594Z,2.17
2023-02-25T05:05:11.213Z,2.40
2023-02-25T05:07:39.003Z,1.93
2023-02-25T05:10:07.740Z,2.23
2023-02-25T05:12:34.639Z,2.70
2023-02-25T05:15:04.037Z,2.63
2023-02-25T05:17:32.141Z,2.07
2023-02-25T05:20:01.516Z,2.60
2023-02-25T05:22:28.301Z,1.87
2023-02-25T05:24:55.075Z,2.53
2023-02-25T05:27:23.859Z,1.97
2023-02-25T05:29:51.564Z,2.00
2023-02-25T05:32:20.840Z,2.63
2023-02-25T05:34:47.604Z,1.90
2023-02-25T05:37:16.771Z,2.23
2023-02-25T05:39:45.889Z,2.07
2023-02-25T05:42:12.446Z,1.93
2023-02-25T05:44:39.016Z,2.00
2023-02-25T05:47:07.639Z,2.40
2023-02-25T05:49:34.355Z,2.30
2023-02-25T05:52:00.926Z,2.83
2023-02-25T05:54:27.543Z,1.93
2023-02-25T05:56:54.197Z,2.27
2023-02-25T05:59:20.862Z,2.00
2023-02-25T06:01:49.978Z,1.90
2023-02-25T06:04:16.868Z,1.90
2023-02-25T06:06:43.537Z,1.73
2023-02-25T06:09:10.498Z,1.53
2023-02-25T06:11:41.938Z,2.00
2023-02-25T06:14:10.915Z,1.70
2023-02-25T06:16:39.328Z,1.70
2023-02-25T06:19:09.630Z,2.07
2023-02-25T06:21:36.400Z,2.03
2023-02-25T06:24:06.418Z,1.87
2023-02-25T06:26:33.192Z,1.83
2023-02-25T06:29:02.518Z,1.93
2023-02-25T06:31:32.482Z,2.30
2023-02-25T06:33:59.149Z,1.77
2023-02-25T06:36:26.736Z,2.27
2023-02-25T06:38:55.940Z,1.60
2023-02-25T06:41:23.722Z,1.43
2023-02-25T06:43:55.370Z,2.00
2023-02-25T06:46:26.047Z,2.40
2023-02-25T06:48:57.440Z,2.27
2023-02-25T06:51:24.163Z,2.17
2023-02-25T06:53:53.416Z,1.47
2023-02-25T06:56:22.013Z,1.70
2023-02-25T06:58:49.473Z,2.53
2023-02-25T07:01:17.367Z,1.90
2023-02-25T07:03:44.430Z,2.33
2023-02-25T07:06:12.083Z,1.87
2023-02-25T07:08:41.317Z,1.93
2023-02-25T07:11:13.893Z,1.57
2023-02-25T07:13:46.012Z,2.43
2023-02-25T07:16:14.969Z,2.03
2023-02-25T07:18:45.253Z,1.43
2023-02-25T07:21:17.148Z,1.67
2023-02-25T07:23:44.998Z,2.13
2023-02-25T07:26:17.557Z,1.87
2023-02-25T07:28:45.086Z,2.13
2023-02-25T07:34:42.274Z,2.30
2023-02-25T07:37:08.902Z,2.27
2023-02-25T07:39:35.610Z,2.10
2023-02-25T07:42:04.643Z,1.90
2023-02-25T07:44:31.358Z,2.13
2023-02-25T07:46:57.981Z,1.67
2023-02-25T07:49:24.600Z,2.00
2023-02-25T07:51:53.269Z,2.37
2023-02-25T07:54:23.488Z,2.47
2023-02-25T07:56:53.578Z,2.70
2023-02-25T07:59:20.318Z,2.90
2023-02-25T08:01:49.331Z,2.87
2023-02-25T08:04:15.939Z,2.43
2023-02-25T08:06:47.584Z,2.30
2023-02-25T08:09:16.871Z,2.63
2023-02-25T08:11:44.468Z,2.43
2023-02-25T08:14:11.694Z,3.10
2023-02-25T08:16:38.786Z,3.10
2023-02-25T08:19:07.535Z,2.47
2023-02-25T08:21:35.351Z,2.17
2023-02-25T08:24:03.321Z,3.30
2023-02-25T08:26:33.000Z,2.70
2023-02-25T08:29:03.565Z,2.77
2023-02-25T08:31:43.055Z,2.17
2023-02-25T08:34:14.223Z,2.40
2023-02-25T08:36:42.923Z,2.83
2023-02-25T08:39:23.043Z,2.30
2023-02-25T08:41:50.434Z,2.30
2023-02-25T08:44:20.012Z,2.38
2023-02-25T08:46:49.747Z,2.03
2023-02-25T08:49:20.048Z,2.50
2023-02-25T08:52:53.607Z,2.05
2023-02-25T08:54:44.805Z,1.92
2023-02-25T08:57:15.846Z,2.60
2023-02-25T08:59:43.713Z,1.95
2023-02-25T09:02:16.950Z,2.13
2023-02-25T09:04:48.127Z,1.95
2023-02-25T09:07:22.811Z,2.08
2023-02-25T09:10:00.031Z,2.83
2023-02-25T09:12:28.151Z,2.30
2023-02-25T09:14:59.923Z,3.10
2023-02-25T09:17:29.057Z,1.98
2023-02-25T09:19:55.849Z,2.08
2023-02-25T09:22:22.532Z,1.45
2023-02-25T09:24:51.597Z,1.67
2023-02-25T09:27:18.286Z,2.42
2023-02-25T09:29:47.329Z,2.13
2023-02-25T09:32:20.285Z,1.40
2023-02-25T09:34:49.846Z,0.90
2023-02-25T09:37:20.792Z,2.50
2023-02-25T09:39:50.040Z,1.73
2023-02-25T09:42:25.386Z,1.58
2023-02-25T09:45:00.773Z,3.10
2023-02-25T09:47:55.759Z,2.47
2023-02-25T09:50:47.556Z,2.05
2023-02-25T09:53:27.894Z,1.92
2023-02-25T09:55:54.681Z,1.80
2023-02-25T09:58:31.691Z,1.63
2023-02-25T10:01:05.605Z,3.25
2023-02-25T10:03:48.148Z,1.95
2023-02-25T10:06:53.006Z,1.95
2023-02-25T10:09:56.714Z,1.95
2023-02-25T10:12:42.195Z,2.40
2023-02-25T10:15:21.253Z,1.70
2023-02-25T10:18:29.322Z,1.80
2023-02-25T10:21:32.915Z,1.58
2023-02-25T10:24:32.327Z,1.33
2023-02-25T10:27:11.427Z,1.67
2023-02-25T10:29:49.910Z,1.25
2023-02-25T10:32:16.617Z,2.05
2023-02-25T10:34:47.367Z,1.48
2023-02-25T10:37:41.109Z,1.63
2023-02-25T10:40:14.437Z,1.20
2023-02-25T10:42:44.855Z,1.60
2023-02-25T10:45:15.135Z,1.15
2023-02-25T10:47:47.603Z,0.90
2023-02-25T10:50:19.121Z,1.83
2023-02-25T10:52:54.562Z,1.85
2023-02-25T10:55:29.768Z,1.70
2023-02-25T10:57:57.835Z,1.55
2023-02-25T11:00:31.286Z,1.40
2023-02-25T11:03:01.483Z,1.20
2023-02-25T11:05:32.188Z,1.38
2023-02-25T11:08:00.223Z,1.20
2023-02-25T11:10:35.238Z,1.48
2023-02-25T11:13:04.148Z,1.50
2023-02-25T11:15:45.687Z,0.90
2023-02-25T11:18:50.709Z,1.35
2023-02-25T11:21:33.068Z,1.17
2023-02-25T11:24:02.871Z,1.05
2023-02-25T11:26:33.604Z,1.30
2023-02-25T11:29:05.265Z,0.80
2023-02-25T11:31:37.006Z,1.58
2023-02-25T11:34:28.863Z,0.77
2023-02-25T11:36:55.574Z,1.02
2023-02-25T11:39:27.976Z,0.75
2023-02-25T11:42:01.964Z,1.27
2023-02-25T11:44:47.582Z,1.08
2023-02-25T11:47:34.329Z,1.33
2023-02-25T11:50:29.778Z,1.15
2023-02-25T11:53:29.755Z,1.30
2023-02-25T11:55:59.835Z,1.30
2023-02-25T11:59:00.365Z,1.10
2023-02-25T12:01:45.018Z,1.33
2023-02-25T12:04:51.823Z,1.00
2023-02-25T12:07:55.340Z,1.60
2023-02-25T12:10:59.501Z,0.50
2023-02-25T12:13:51.039Z,1.00
2023-02-25T12:16:26.907Z,0.80
2023-02-25T12:19:12.010Z,0.60
2023-02-25T12:21:54.075Z,0.90
2023-02-25T12:24:29.627Z,0.87
2023-02-25T12:27:08.230Z,0.95
2023-02-25T12:29:48.130Z,1.23
2023-02-25T12:32:37.746Z,1.20
2023-02-25T12:35:27.394Z,1.42
2023-02-25T12:38:21.639Z,1.45
2023-02-25T12:41:09.709Z,1.02
2023-02-25T12:43:54.060Z,0.93
2023-02-25T12:46:49.451Z,0.80
2023-02-25T12:49:21.927Z,0.80
2023-02-25T12:52:17.573Z,0.70
2023-02-25T12:55:02.566Z,0.73
2023-02-25T12:57:41.078Z,1.10
2023-02-25T13:00:29.025Z,1.42
2023-02-25T13:03:25.906Z,0.85
2023-02-25T13:06:14.341Z,0.60
2023-02-25T13:09:01.156Z,0.93
2023-02-25T13:12:11.213Z,0.90
2023-02-25T13:15:02.841Z,0.63
2023-02-25T13:17:41.115Z,0.75
2023-02-25T13:20:50.832Z,1.00
2023-02-25T13:23:35.756Z,0.88
2023-02-25T13:26:44.087Z,1.88
2023-02-25T13:29:23.655Z,1.35
2023-02-25T13:32:12.528Z,1.00
2023-02-25T13:34:54.864Z,1.65
2023-02-25T13:38:14.907Z,1.60
2023-02-25T13:41:10.814Z,0.98
2023-02-25T13:43:43.620Z,0.73
2023-02-25T13:46:28.941Z,0.77
2023-02-25T13:49:17.239Z,0.75
2023-02-25T13:52:24.981Z,0.85
2023-02-25T13:54:57.413Z,0.70
2023-02-25T13:57:36.296Z,0.57
2023-02-25T14:00:05.220Z,1.40
2023-02-25T14:02:53.805Z,1.98
2023-02-25T14:05:53.499Z,0.93
2023-02-25T14:08:49.080Z,0.90
2023-02-25T14:11:57.787Z,1.48
2023-02-25T14:15:07.162Z,1.17
2023-02-25T14:17:59.939Z,1.17
2023-02-25T14:20:50.687Z,1.10
2023-02-25T14:23:41.788Z,0.98
2023-02-25T14:26:17.085Z,1.00
2023-02-25T14:29:07.751Z,1.52
2023-02-25T14:32:01.620Z,1.20
2023-02-25T14:35:06.357Z,0.93
2023-02-25T14:37:57.723Z,1.55
2023-02-25T14:40:58.239Z,1.17
2023-02-25T14:43:32.634Z,0.88
2023-02-25T14:46:17.396Z,0.95
2023-02-25T14:48:50.332Z,1.00
2023-02-25T14:51:34.618Z,1.70
2023-02-25T14:54:07.122Z,1.25
2023-02-25T14:57:05.528Z,1.08
2023-02-25T15:00:00.513Z,1.20
2023-02-25T15:03:09.482Z,0.77
2023-02-25T15:05:53.937Z,1.02
2023-02-25T15:08:47.633Z,1.02
2023-02-25T15:11:35.003Z,1.70
2023-02-25T15:14:08.207Z,1.35
2023-02-25T15:17:12.905Z,1.50
2023-02-25T15:19:51.633Z,1.45
2023-02-25T15:22:29.404Z,1.30
2023-02-25T15:25:21.041Z,0.63
2023-02-25T15:27:52.396Z,1.20
2023-02-25T15:30:26.988Z,1.40
2023-02-25T15:33:36.719Z,0.90
2023-02-25T15:36:16.168Z,1.38
2023-02-25T15:38:54.782Z,1.58
2023-02-25T15:41:27.034Z,0.80
2023-02-25T15:44:10.039Z,0.80
2023-02-25T15:46:37.500Z,1.17
2023-02-25T15:49:43.857Z,0.95
2023-02-25T15:52:12.102Z,1.95
2023-02-25T15:54:39.518Z,1.55
2023-02-25T15:57:12.485Z,1.60
2023-02-25T15:59:58.410Z,1.20
2023-02-25T16:02:30.592Z,1.25
2023-02-25T16:05:18.852Z,1.10
2023-02-25T16:07:53.784Z,0.95
2023-02-25T16:10:35.755Z,1.02
2023-02-25T16:13:05.252Z,1.02
2023-02-25T16:15:44.904Z,0.75
2023-02-25T16:18:46.796Z,1.17
2023-02-25T16:21:27.563Z,0.55
2023-02-25T16:27:25.859Z,0.40
2023-02-25T16:30:15.204Z,0.73
2023-02-25T16:33:09.168Z,0.77
2023-02-25T16:36:09.302Z,0.60
2023-02-25T16:38:43.821Z,0.70
2023-02-25T16:41:36.368Z,0.95
2023-02-25T16:44:05.724Z,1.00
2023-02-25T16:46:35.086Z,1.10
2023-02-25T16:49:24.824Z,0.82
2023-02-25T16:52:05.464Z,1.10
2023-02-25T16:54:44.891Z,1.23
2023-02-25T16:57:21.863Z,0.90
2023-02-25T17:00:20.820Z,0.57
2023-02-25T17:02:55.850Z,1.70
2023-02-25T17:05:34.510Z,1.08
2023-02-25T17:08:05.047Z,1.00
2023-02-25T17:10:46.922Z,0.90
2023-02-25T17:13:24.632Z,1.40
2023-02-25T17:15:57.213Z,1.23
2023-02-25T17:18:34.721Z,0.90
2023-02-25T17:21:33.865Z,1.83
2023-02-25T17:24:03.017Z,1.98
2023-02-25T17:26:31.111Z,1.67
2023-02-25T17:28:59.825Z,0.90
2023-02-25T17:31:29.697Z,1.10
2023-02-25T17:33:58.231Z,1.30
2023-02-25T17:36:34.388Z,1.63
2023-02-25T17:39:07.659Z,1.07
2023-02-25T17:41:38.473Z,1.40
2023-02-25T17:44:05.218Z,1.27
2023-02-25T17:46:37.848Z,1.63
2023-02-25T17:49:06.863Z,1.07
2023-02-25T17:51:38.935Z,1.87
2023-02-25T17:54:15.900Z,1.50
2023-02-25T17:56:45.068Z,1.40
2023-02-25T17:59:17.071Z,1.70
2023-02-25T18:01:54.216Z,1.40
2023-02-25T18:04:41.605Z,1.50
2023-02-25T18:07:30.732Z,1.67
2023-02-25T18:09:57.628Z,1.50
2023-02-25T18:12:38.005Z,1.40
2023-02-25T18:15:13.837Z,1.23
2023-02-25T18:17:41.810Z,1.40
2023-02-25T18:20:25.918Z,1.50
2023-02-25T18:22:53.622Z,1.43
2023-02-25T18:25:29.366Z,1.07
2023-02-25T18:27:58.882Z,1.63
2023-02-25T18:30:30.674Z,1.50
2023-02-25T18:32:59.310Z,1.77
2023-02-25T18:35:30.864Z,2.07
2023-02-25T18:38:07.368Z,1.80
2023-02-25T18:40:39.973Z,1.00
2023-02-25T18:43:07.309Z,1.43
2023-02-25T18:45:34.589Z,1.73
2023-02-25T18:48:01.856Z,1.87
2023-02-25T18:50:32.661Z,1.67
2023-02-25T18:53:00.577Z,1.70
2023-02-25T18:55:33.013Z,1.70
2023-02-25T18:58:01.124Z,1.60
2023-02-25T19:00:27.997Z,1.90
2023-02-25T19:03:02.255Z,1.90
2023-02-25T19:05:29.848Z,1.23
2023-02-25T19:07:57.017Z,1.47
2023-02-25T19:10:27.095Z,1.90
2023-02-25T19:13:04.475Z,3.10
2023-02-25T19:15:34.445Z,2.30
2023-02-25T19:18:03.216Z,2.27
2023-02-25T19:20:32.325Z,3.07
2023-02-25T19:22:59.039Z,2.27
2023-02-25T19:25:28.774Z,3.53
2023-02-25T19:27:56.798Z,4.13
2023-02-25T19:30:29.234Z,4.67
2023-02-25T19:33:02.828Z,4.60
2023-02-25T19:35:34.247Z,5.00
2023-02-25T19:38:04.165Z,3.40
2023-02-25T19:40:31.187Z,3.17
2023-02-25T19:43:01.026Z,3.40
2023-02-25T19:45:30.689Z,3.80
2023-02-25T19:47:59.969Z,3.07
2023-02-25T19:50:34.683Z,3.40
2023-02-25T19:53:02.720Z,3.60
2023-02-25T19:55:29.605Z,3.00
2023-02-25T19:57:56.390Z,3.80
2023-02-25T20:00:25.503Z,4.63
2023-02-25T20:02:56.289Z,4.70
2023-02-25T20:05:24.823Z,4.10
2023-02-25T20:07:51.658Z,3.97
2023-02-25T20:10:19.172Z,7.70
2023-02-25T20:12:46.931Z,6.17
2023-02-25T20:15:15.993Z,5.63
2023-02-25T20:17:44.712Z,4.87
2023-02-25T20:20:13.002Z,3.67
2023-02-25T20:22:40.372Z,4.10
2023-02-25T20:25:09.993Z,3.07
2023-02-25T20:27:39.233Z,3.57
2023-02-25T20:30:06.962Z,2.60
2023-02-25T20:32:34.219Z,2.83
2023-02-25T20:35:03.121Z,3.10
2023-02-25T20:37:33.785Z,3.17
2023-02-25T20:40:01.086Z,3.87
2023-02-25T20:42:30.367Z,4.90
2023-02-25T20:45:00.395Z,6.90
2023-02-25T20:47:29.722Z,4.80
2023-02-25T20:49:58.952Z,3.70
2023-02-25T20:52:26.919Z,3.47
2023-02-25T20:54:54.238Z,3.63
2023-02-25T20:57:28.181Z,4.53
2023-02-25T20:59:55.052Z,4.40
2023-02-25T21:02:22.360Z,4.50
2023-02-25T21:04:49.416Z,5.47
2023-02-25T21:07:18.716Z,4.37
2023-02-25T21:09:45.381Z,4.90
2023-02-25T21:12:14.433Z,4.43
2023-02-25T21:14:40.990Z,4.50
2023-02-25T21:17:09.700Z,5.07
2023-02-25T21:19:38.595Z,4.83
2023-02-25T21:22:06.765Z,4.57
2023-02-25T21:24:36.671Z,5.57
2023-02-25T21:27:06.546Z,5.27
2023-02-25T21:29:33.094Z,4.73
2023-02-25T21:31:59.796Z,4.53
2023-02-25T21:34:28.911Z,3.93
2023-02-25T21:36:58.365Z,3.30
2023-02-25T21:39:27.620Z,3.37
2023-02-25T21:41:56.628Z,3.53
2023-02-25T21:44:23.404Z,3.10
2023-02-25T21:46:52.409Z,3.60
2023-02-25T21:49:19.061Z,3.97
2023-02-25T21:51:46.032Z,3.40
2023-02-25T21:54:13.833Z,2.70
2023-02-25T21:56:40.787Z,3.13
2023-02-25T21:59:07.431Z,3.00
2023-02-25T22:01:37.395Z,3.23
2023-02-25T22:04:04.944Z,3.23
2023-02-25T22:06:31.658Z,3.30
2023-02-25T22:08:58.805Z,3.70
2023-02-25T22:11:30.892Z,3.60
2023-02-25T22:14:05.596Z,4.13
2023-02-25T22:16:32.835Z,3.70
2023-02-25T22:19:02.099Z,3.40
2023-02-25T22:21:30.719Z,3.07
2023-02-25T22:23:59.781Z,4.30
2023-02-25T22:26:32.155Z,3.07
2023-02-25T22:29:01.759Z,3.40
2023-02-25T22:31:28.887Z,3.20
2023-02-25T22:33:57.120Z,3.20
2023-02-25T22:36:27.006Z,3.63
2023-02-25T22:38:54.623Z,2.70
2023-02-25T22:41:28.038Z,3.00
2023-02-25T22:43:55.457Z,3.10
2023-02-25T22:46:26.265Z,3.07
2023-02-25T22:48:54.202Z,3.03
2023-02-25T22:51:29.662Z,2.40
2023-02-25T22:53:56.759Z,2.50
2023-02-25T22:56:26.450Z,2.53
2023-02-25T22:58:53.426Z,1.80
2023-02-25T23:01:22.279Z,2.67
2023-02-25T23:03:52.629Z,2.53
2023-02-25T23:06:34.338Z,2.27
2023-02-25T23:09:11.801Z,2.27
2023-02-25T23:11:41.898Z,2.37
2023-02-25T23:14:08.500Z,2.47
2023-02-25T23:16:41.585Z,2.67
2023-02-25T23:19:13.652Z,2.13
2023-02-25T23:21:40.233Z,2.70
2023-02-25T23:24:08.775Z,2.07
2023-02-25T23:26:40.617Z,2.90
2023-02-25T23:29:09.269Z,2.90
2023-02-25T23:31:47.055Z,2.40
2023-02-25T23:34:23.097Z,2.80
2023-02-25T23:36:50.129Z,2.93
2023-02-25T23:39:19.126Z,2.03
2023-02-25T23:41:46.057Z,2.27
2023-02-25T23:44:16.387Z,2.67
2023-02-25T23:46:44.066Z,2.53
2023-02-25T23:49:18.219Z,2.73
2023-02-25T23:51:48.910Z,2.60
2023-02-25T23:54:19.922Z,2.30
2023-02-25T23:56:47.209Z,2.23
2023-02-25T23:59:14.313Z,2.23
